SABE/AEP METAR and TAF weather

Enter ICAO airport designator
Station Type Date Time Source
SABE METAR 2018/12/16 00:00 UTC NOAA

SABE 160000Z 33004KT CAVOK 23/14 Q1015 NOSIG


Station Type Date Time Source
SABE Decoded METAR 2018/12/16 00:00 UTC NOAA

Aeroparque Bs. As. Aerodrome, Argentina (SABE) 34-34S 058-25W 6M
Dec 15, 2018 - 07:00 PM EST / 2018.12.16 0000 UTC
Wind: from the NNW (330 degrees) at 5 MPH (4 KT):0
Visibility: greater than 7 mile(s):0
Temperature: 73 F (23 C)
Dew Point: 57 F (14 C)
Relative Humidity: 56%
Pressure (altimeter): 29.97 in. Hg (1015 hPa)
ob: SABE 160000Z 33004KT CAVOK 23/14 Q1015 NOSIG
cycle: 0

Station Type Date Time Source
SABE TAF 2018/12/16 00:00 UTC NOAA

TAF SABE 152300Z 1600/1624 01005KT CAVOK TX28/1618Z TN19/1609Z
BECMG 1603/1605 01010KT
BECMG 1618/1620 SCT035


Example: see airport list